Newport, Rhode Island
Current Conditions -  °F | °C
As of 11:53 PM on Tuesday 25 Nov 2014 (Local Time) from KUUU Reporting Station
Clear Clear  
Wind Chill: 50°   Ceiling: Unl
Heat Index: 50°   Visibility: 10mi
Dew Point: 32°   Wind: 0mph
Humidity: 50%   Direction: NA
Pressure: 30.13"   Gusts: NA
Location:  41.49°N, 71.31°W
Report Text: KUUU 260453Z AUTO 00000KT 10SM CLR 10/00 A3013 RMK AO2 SLP201 T01000000 401720100
Loading
Personal Weather Stations






























Interactive Weather Map New forecast layout! Learn more

10-Day Weather Forecast

Advertisements
Track Severe Weather on mobile